Time;durP1;ratioP1;P1;durP2;ratioP2;P2;SDS_P1;SDS_P2;PMS_P1;PMS_P2;Temp;Humidity;BMP_temperature;BMP_pressure;BME280_temperature;BME280_humidity;BME280_pressure;Samples;Min_cycle;Max_cycle;Signal;HPM_P1;HPM_P2
2023/04/16 00:01:04;;;;;;;;;;;19.20;42.80;;;;;;5065141;28;19924;-58
2023/04/16 00:03:33;;;;;;;;;;;19.10;42.70;;;;;;5079496;28;19924;-59
2023/04/16 00:05:59;;;;;;;;;;;19.10;42.70;;;;;;5082057;28;19986;-58
2023/04/16 00:08:26;;;;;;;;;;;19.20;42.80;;;;;;5067858;28;19969;-59
2023/04/16 00:10:53;;;;;;;;;;;19.10;42.70;;;;;;5071806;28;19932;-58
2023/04/16 00:13:20;;;;;;;;;;;19.10;42.70;;;;;;5069188;28;19924;-58
2023/04/16 00:15:48;;;;;;;;;;;19.20;42.80;;;;;;5064598;28;19928;-58
2023/04/16 00:18:16;;;;;;;;;;;19.20;42.80;;;;;;5078748;28;19925;-58
2023/04/16 00:20:43;;;;;;;;;;;19.20;42.80;;;;;;5064190;28;19980;-58
2023/04/16 00:23:09;;;;;;;;;;;19.20;42.80;;;;;;5064247;28;19924;-59
2023/04/16 00:25:36;;;;;;;;;;;19.20;42.80;;;;;;5063608;28;19932;-59
2023/04/16 00:28:03;;;;;;;;;;;19.20;42.80;;;;;;5084240;28;20273;-59
2023/04/16 00:30:30;;;;;;;;;;;19.20;42.80;;;;;;5080480;28;19925;-59
2023/04/16 00:32:56;;;;;;;;;;;19.20;42.80;;;;;;5063963;28;19932;-58
2023/04/16 00:35:25;;;;;;;;;;;19.20;42.80;;;;;;5063861;28;19924;-58
2023/04/16 00:37:51;;;;;;;;;;;19.20;42.80;;;;;;5064325;28;19974;-58
2023/04/16 00:40:18;;;;;;;;;;;19.20;42.80;;;;;;5083177;28;19924;-58
2023/04/16 00:42:45;;;;;;;;;;;19.20;42.80;;;;;;5086167;28;20427;-59
2023/04/16 00:45:12;;;;;;;;;;;19.20;42.70;;;;;;5061706;28;19963;-57
2023/04/16 00:47:38;;;;;;;;;;;19.20;42.80;;;;;;5062967;28;19973;-57
2023/04/16 00:50:06;;;;;;;;;;;19.20;42.80;;;;;;5079705;28;20248;-58
2023/04/16 00:52:36;;;;;;;;;;;19.20;42.80;;;;;;5079672;28;19926;-58
2023/04/16 00:55:03;;;;;;;;;;;19.20;42.80;;;;;;5064039;28;20240;-59
2023/04/16 00:57:30;;;;;;;;;;;19.20;42.70;;;;;;5065222;28;19970;-59
2023/04/16 00:59:57;;;;;;;;;;;19.20;42.80;;;;;;5081396;28;19925;-57
2023/04/16 01:02:34;;;;;;;;;;;19.20;42.80;;;;;;5081171;28;20300;-58
2023/04/16 01:05:01;;;;;;;;;;;19.20;42.80;;;;;;5064636;28;19965;-57
2023/04/16 01:07:28;;;;;;;;;;;19.20;43.40;;;;;;5083639;28;19931;-58
2023/04/16 01:09:56;;;;;;;;;;;19.20;42.80;;;;;;5064162;28;19920;-57
2023/04/16 01:12:23;;;;;;;;;;;19.20;42.80;;;;;;5060696;28;19970;-58
2023/04/16 01:14:50;;;;;;;;;;;19.20;42.80;;;;;;5066030;28;19920;-59
2023/04/16 01:17:16;;;;;;;;;;;19.20;42.80;;;;;;5064851;28;19920;-59
2023/04/16 01:19:43;;;;;;;;;;;19.20;42.80;;;;;;5078851;28;20310;-58
2023/04/16 01:22:11;;;;;;;;;;;19.20;42.80;;;;;;5081518;28;19920;-59
2023/04/16 01:24:38;;;;;;;;;;;19.20;42.80;;;;;;5059979;28;20001;-59
2023/04/16 01:27:05;;;;;;;;;;;19.20;42.80;;;;;;5085979;28;20020;-59
2023/04/16 01:29:31;;;;;;;;;;;19.20;42.80;;;;;;5060275;28;19932;-58
2023/04/16 01:31:58;;;;;;;;;;;19.20;42.70;;;;;;5081576;28;19997;-59
2023/04/16 01:34:25;;;;;;;;;;;19.20;42.80;;;;;;5081755;28;19920;-59
2023/04/16 01:36:52;;;;;;;;;;;19.20;42.80;;;;;;5062380;28;19997;-59
2023/04/16 01:39:20;;;;;;;;;;;19.20;42.80;;;;;;5063836;28;19931;-58
2023/04/16 01:41:46;;;;;;;;;;;19.20;42.80;;;;;;5062348;28;19977;-58
2023/04/16 01:44:13;;;;;;;;;;;19.20;42.80;;;;;;5079956;28;19971;-58
2023/04/16 01:46:40;;;;;;;;;;;19.20;42.80;;;;;;5065565;28;19974;-58
2023/04/16 01:49:07;;;;;;;;;;;19.20;42.80;;;;;;5079381;28;19950;-58
2023/04/16 01:51:33;;;;;;;;;;;19.20;42.80;;;;;;5065870;28;19920;-58
2023/04/16 01:54:00;;;;;;;;;;;19.20;42.70;;;;;;5062181;28;19967;-58
2023/04/16 01:56:28;;;;;;;;;;;19.20;42.80;;;;;;5083320;28;19923;-58
2023/04/16 01:58:55;;;;;;;;;;;19.30;42.90;;;;;;5060761;28;19921;-58
2023/04/16 02:01:22;;;;;;;;;;;19.20;42.80;;;;;;5078144;28;19940;-59
2023/04/16 02:03:49;;;;;;;;;;;19.20;42.80;;;;;;5078693;28;19924;-59
2023/04/16 02:06:16;;;;;;;;;;;19.30;42.90;;;;;;5078472;28;19931;-58
2023/04/16 02:08:42;;;;;;;;;;;19.20;42.70;;;;;;5059832;28;19944;-58
2023/04/16 02:11:09;;;;;;;;;;;19.20;42.70;;;;;;5078878;28;19947;-58
2023/04/16 02:13:37;;;;;;;;;;;19.30;42.90;;;;;;5061304;28;20431;-58
2023/04/16 02:16:04;;;;;;;;;;;19.20;42.70;;;;;;5061377;28;19943;-58
2023/04/16 02:18:31;;;;;;;;;;;19.20;42.80;;;;;;5061817;28;19935;-58
2023/04/16 02:20:58;;;;;;;;;;;19.20;42.80;;;;;;5060878;28;20010;-58
2023/04/16 02:23:25;;;;;;;;;;;19.30;42.80;;;;;;5080183;28;19994;-58
2023/04/16 02:25:52;;;;;;;;;;;19.20;42.70;;;;;;5062452;28;19927;-58
2023/04/16 02:28:18;;;;;;;;;;;19.30;42.90;;;;;;5061791;28;20371;-58
2023/04/16 02:30:47;;;;;;;;;;;19.20;42.80;;;;;;5075938;28;19920;-58
2023/04/16 02:33:13;;;;;;;;;;;19.20;42.70;;;;;;5060607;28;19920;-59
2023/04/16 02:35:40;;;;;;;;;;;19.20;42.80;;;;;;5079632;28;20250;-59
2023/04/16 02:38:07;;;;;;;;;;;19.30;42.90;;;;;;5078719;28;20304;-59
2023/04/16 02:40:34;;;;;;;;;;;19.30;42.80;;;;;;5076463;28;19924;-58
2023/04/16 02:43:01;;;;;;;;;;;19.20;42.80;;;;;;5080050;28;19974;-58
2023/04/16 02:45:27;;;;;;;;;;;19.20;42.80;;;;;;5078214;28;19920;-59
2023/04/16 02:47:56;;;;;;;;;;;19.30;42.90;;;;;;5061478;28;19966;-59
2023/04/16 02:50:22;;;;;;;;;;;19.20;42.80;;;;;;5079183;28;19921;-59
2023/04/16 02:52:50;;;;;;;;;;;19.20;42.70;;;;;;5081418;28;19924;-59
2023/04/16 02:55:17;;;;;;;;;;;19.20;42.80;;;;;;5061008;28;19921;-59
2023/04/16 02:57:43;;;;;;;;;;;19.20;42.80;;;;;;5080094;28;19990;-59
2023/04/16 03:00:11;;;;;;;;;;;19.20;42.70;;;;;;5078601;28;19920;-59
2023/04/16 03:02:37;;;;;;;;;;;19.30;42.90;;;;;;5058068;28;19920;-59
2023/04/16 03:05:06;;;;;;;;;;;19.30;42.80;;;;;;5086246;28;19920;-59
2023/04/16 03:07:33;;;;;;;;;;;19.30;42.90;;;;;;5062302;28;19920;-59
2023/04/16 03:10:00;;;;;;;;;;;19.30;42.90;;;;;;5065656;28;19920;-59
2023/04/16 03:12:27;;;;;;;;;;;19.20;42.70;;;;;;5063245;28;20094;-59
2023/04/16 03:14:54;;;;;;;;;;;19.30;42.90;;;;;;5066268;28;19986;-58
2023/04/16 03:17:21;;;;;;;;;;;19.20;42.70;;;;;;5066928;28;19933;-58
2023/04/16 03:19:49;;;;;;;;;;;19.30;42.90;;;;;;5083700;28;20363;-59
2023/04/16 03:22:17;;;;;;;;;;;19.30;42.90;;;;;;5066589;28;20363;-59
2023/04/16 03:24:44;;;;;;;;;;;19.30;42.90;;;;;;5081140;28;19978;-59
2023/04/16 03:27:11;;;;;;;;;;;19.30;42.90;;;;;;5065793;28;19927;-58
2023/04/16 03:29:38;;;;;;;;;;;19.20;42.70;;;;;;5082601;28;19954;-59
2023/04/16 03:32:05;;;;;;;;;;;19.30;42.80;;;;;;5069121;28;19924;-59
2023/04/16 03:34:31;;;;;;;;;;;19.30;42.80;;;;;;5080636;28;19969;-59
2023/04/16 03:36:59;;;;;;;;;;;19.30;42.90;;;;;;5078867;28;19924;-58
2023/04/16 03:39:27;;;;;;;;;;;19.30;42.80;;;;;;5083107;28;20384;-59
2023/04/16 03:41:53;;;;;;;;;;;19.30;42.80;;;;;;5081640;28;19967;-59
2023/04/16 03:44:20;;;;;;;;;;;19.30;42.90;;;;;;5063357;28;20416;-59
2023/04/16 03:46:47;;;;;;;;;;;19.30;42.80;;;;;;5082996;28;19920;-59
2023/04/16 03:49:14;;;;;;;;;;;19.30;42.90;;;;;;5065901;28;19927;-60
2023/04/16 03:51:41;;;;;;;;;;;19.30;42.90;;;;;;5064854;28;19922;-59
2023/04/16 03:54:07;;;;;;;;;;;19.30;42.80;;;;;;5079122;28;19974;-58
2023/04/16 03:56:35;;;;;;;;;;;19.30;42.80;;;;;;5066757;28;19920;-59
2023/04/16 03:59:02;;;;;;;;;;;19.30;42.80;;;;;;5083206;28;19920;-59
2023/04/16 04:01:29;;;;;;;;;;;19.30;42.80;;;;;;5065170;28;20187;-59
2023/04/16 04:03:56;;;;;;;;;;;19.30;42.80;;;;;;5048077;28;20007;-58
2023/04/16 04:06:22;;;;;;;;;;;19.30;42.80;;;;;;5061927;28;19926;-59
2023/04/16 04:08:49;;;;;;;;;;;19.30;43.40;;;;;;5065086;28;20167;-58
2023/04/16 04:11:16;;;;;;;;;;;19.30;42.80;;;;;;5082600;28;19924;-59
2023/04/16 04:13:44;;;;;;;;;;;19.30;42.80;;;;;;5062334;28;20016;-58
2023/04/16 04:16:11;;;;;;;;;;;19.30;42.90;;;;;;5063443;28;19920;-59
2023/04/16 04:18:38;;;;;;;;;;;19.30;42.80;;;;;;5063247;28;20022;-58
2023/04/16 04:21:05;;;;;;;;;;;19.30;42.80;;;;;;5080451;28;19920;-59
2023/04/16 04:23:32;;;;;;;;;;;19.30;42.90;;;;;;5062573;28;20023;-59
2023/04/16 04:26:02;;;;;;;;;;;19.30;42.80;;;;;;5083250;28;19928;-59
2023/04/16 04:28:29;;;;;;;;;;;19.30;42.80;;;;;;5081236;28;19952;-59
2023/04/16 04:30:57;;;;;;;;;;;19.30;42.80;;;;;;5063445;28;19978;-59
2023/04/16 04:33:24;;;;;;;;;;;19.30;42.80;;;;;;5062001;28;19928;-59
2023/04/16 04:35:51;;;;;;;;;;;19.30;42.80;;;;;;5068963;28;19924;-59
2023/04/16 04:38:20;;;;;;;;;;;19.30;42.80;;;;;;5064526;28;19921;-59
2023/04/16 04:40:47;;;;;;;;;;;19.30;42.80;;;;;;5061314;28;19924;-59
2023/04/16 04:43:14;;;;;;;;;;;19.30;42.80;;;;;;5062147;28;20323;-59
2023/04/16 04:45:40;;;;;;;;;;;19.30;42.80;;;;;;5081161;28;19959;-59
2023/04/16 04:48:11;;;;;;;;;;;19.30;42.80;;;;;;5061771;28;20015;-59
2023/04/16 04:50:39;;;;;;;;;;;19.30;42.80;;;;;;5082398;28;19968;-59
2023/04/16 04:53:08;;;;;;;;;;;19.30;42.80;;;;;;5062604;28;19973;-57
2023/04/16 04:55:35;;;;;;;;;;;19.30;42.80;;;;;;5076767;28;19920;-59
2023/04/16 04:58:03;;;;;;;;;;;19.30;42.80;;;;;;5077668;28;19947;-57
2023/04/16 05:00:29;;;;;;;;;;;19.30;42.80;;;;;;5079658;28;19979;-57
2023/04/16 05:02:57;;;;;;;;;;;19.30;42.90;;;;;;5065353;28;19924;-57
2023/04/16 05:05:25;;;;;;;;;;;19.30;42.80;;;;;;5080967;28;19928;-57
2023/04/16 05:07:52;;;;;;;;;;;19.30;42.80;;;;;;5063740;28;19921;-57
2023/04/16 05:10:19;;;;;;;;;;;19.30;42.80;;;;;;5062397;28;19930;-57
2023/04/16 05:12:46;;;;;;;;;;;19.30;42.80;;;;;;5082553;28;20511;-57
2023/04/16 05:15:12;;;;;;;;;;;19.30;42.80;;;;;;5064832;28;19920;-57
2023/04/16 05:17:39;;;;;;;;;;;19.30;42.80;;;;;;5060756;28;20318;-58
2023/04/16 05:20:07;;;;;;;;;;;19.30;42.80;;;;;;5078139;28;19932;-58
2023/04/16 05:22:35;;;;;;;;;;;19.30;42.80;;;;;;5062474;28;19941;-58
2023/04/16 05:25:02;;;;;;;;;;;19.30;42.80;;;;;;5064024;28;20023;-58
2023/04/16 05:27:28;;;;;;;;;;;19.30;42.80;;;;;;5063521;28;19921;-58
2023/04/16 05:29:55;;;;;;;;;;;19.30;42.90;;;;;;5062451;28;19921;-57
2023/04/16 05:32:22;;;;;;;;;;;19.30;42.80;;;;;;5061061;28;20241;-58
2023/04/16 05:34:49;;;;;;;;;;;19.30;42.80;;;;;;5081737;28;20018;-58
2023/04/16 05:37:16;;;;;;;;;;;19.30;42.80;;;;;;5063943;28;19920;-58
2023/04/16 05:39:44;;;;;;;;;;;19.30;42.80;;;;;;5078621;28;19920;-58
2023/04/16 05:42:11;;;;;;;;;;;19.30;42.80;;;;;;5078013;28;19928;-58
2023/04/16 05:44:38;;;;;;;;;;;19.30;42.80;;;;;;5082523;28;20435;-57
2023/04/16 05:47:06;;;;;;;;;;;19.30;42.80;;;;;;5062247;28;19953;-58
2023/04/16 05:49:32;;;;;;;;;;;19.30;42.90;;;;;;5062394;28;20002;-57
2023/04/16 05:51:59;;;;;;;;;;;19.30;42.90;;;;;;5061022;28;19920;-58
2023/04/16 05:54:26;;;;;;;;;;;19.30;42.80;;;;;;5063698;28;20022;-58
2023/04/16 05:56:55;;;;;;;;;;;19.30;42.80;;;;;;5063419;28;19970;-58
2023/04/16 05:59:21;;;;;;;;;;;19.30;42.80;;;;;;5060003;28;19928;-57
2023/04/16 06:01:48;;;;;;;;;;;19.30;42.90;;;;;;5080411;28;19953;-57
2023/04/16 06:04:15;;;;;;;;;;;19.30;42.80;;;;;;5061106;28;19925;-58
2023/04/16 06:06:42;;;;;;;;;;;19.30;42.80;;;;;;5064237;28;20273;-58
2023/04/16 06:09:09;;;;;;;;;;;19.30;42.90;;;;;;5082907;28;19970;-57
2023/04/16 06:11:35;;;;;;;;;;;19.30;42.90;;;;;;5061928;28;20014;-58
2023/04/16 06:14:04;;;;;;;;;;;19.30;42.80;;;;;;5079473;28;19920;-58
2023/04/16 06:16:30;;;;;;;;;;;19.30;42.80;;;;;;5062693;28;19943;-58
2023/04/16 06:18:57;;;;;;;;;;;19.30;42.80;;;;;;5060389;28;19970;-58
2023/04/16 06:21:25;;;;;;;;;;;19.30;42.80;;;;;;5063153;28;19920;-58
2023/04/16 06:23:51;;;;;;;;;;;19.30;42.80;;;;;;5078481;28;19930;-58
2023/04/16 06:26:18;;;;;;;;;;;19.30;42.90;;;;;;5064263;28;19927;-58
2023/04/16 06:28:45;;;;;;;;;;;19.30;42.90;;;;;;5061599;28;19921;-58
2023/04/16 06:31:13;;;;;;;;;;;19.30;42.80;;;;;;5044301;28;19924;-58
2023/04/16 06:33:40;;;;;;;;;;;19.30;42.90;;;;;;5061765;28;20006;-58
2023/04/16 06:36:07;;;;;;;;;;;19.30;42.90;;;;;;5082685;28;19959;-58
2023/04/16 06:38:33;;;;;;;;;;;19.30;42.80;;;;;;5059855;28;19924;-58
2023/04/16 06:41:00;;;;;;;;;;;19.40;42.90;;;;;;5082690;28;19974;-59
2023/04/16 06:43:27;;;;;;;;;;;19.40;42.90;;;;;;5061975;28;19920;-59
2023/04/16 06:45:53;;;;;;;;;;;19.30;42.80;;;;;;5065299;28;19950;-59
2023/04/16 06:48:24;;;;;;;;;;;19.30;42.90;;;;;;5066444;28;19974;-58
2023/04/16 06:50:50;;;;;;;;;;;19.30;43.40;;;;;;5064157;28;20009;-58
2023/04/16 06:53:17;;;;;;;;;;;19.30;42.80;;;;;;5083414;28;20013;-58
2023/04/16 06:55:44;;;;;;;;;;;19.30;42.90;;;;;;5082092;28;19933;-59
2023/04/16 06:58:11;;;;;;;;;;;19.30;42.90;;;;;;5065840;28;19924;-59
2023/04/16 07:00:38;;;;;;;;;;;19.30;42.80;;;;;;5065668;28;19982;-59
2023/04/16 07:03:04;;;;;;;;;;;19.30;42.90;;;;;;5067212;28;20017;-59
2023/04/16 07:05:33;;;;;;;;;;;19.30;42.90;;;;;;5064022;28;19986;-58
2023/04/16 07:08:00;;;;;;;;;;;19.40;42.90;;;;;;5064489;28;19920;-59
2023/04/16 07:10:26;;;;;;;;;;;19.30;42.90;;;;;;5064391;28;19975;-58
2023/04/16 07:12:53;;;;;;;;;;;19.40;42.90;;;;;;5067608;28;19997;-58
2023/04/16 07:15:20;;;;;;;;;;;19.30;42.80;;;;;;5064702;28;19925;-58
2023/04/16 07:17:47;;;;;;;;;;;19.30;42.90;;;;;;5064545;28;20023;-59
2023/04/16 07:20:14;;;;;;;;;;;19.30;42.80;;;;;;5061402;28;19981;-59
2023/04/16 07:22:42;;;;;;;;;;;19.40;42.90;;;;;;5076626;28;19943;-59
2023/04/16 07:25:12;;;;;;;;;;;19.30;42.90;;;;;;5062742;28;19920;-59
2023/04/16 07:27:39;;;;;;;;;;;19.30;42.80;;;;;;5068817;28;19994;-58
2023/04/16 07:30:06;;;;;;;;;;;19.30;42.80;;;;;;5070655;28;20419;-59
2023/04/16 07:32:33;;;;;;;;;;;19.30;42.80;;;;;;5044417;28;19932;-59
2023/04/16 07:35:00;;;;;;;;;;;19.40;42.90;;;;;;5065117;28;19920;-59
2023/04/16 07:37:27;;;;;;;;;;;19.40;42.90;;;;;;5086678;28;19926;-58
2023/04/16 07:39:56;;;;;;;;;;;19.40;42.90;;;;;;5085318;28;20263;-59
2023/04/16 07:42:23;;;;;;;;;;;19.40;42.90;;;;;;5082682;28;20028;-58
2023/04/16 07:44:49;;;;;;;;;;;19.40;42.90;;;;;;5065659;28;19947;-59
2023/04/16 07:47:17;;;;;;;;;;;19.40;42.90;;;;;;5082418;28;20294;-59
2023/04/16 07:49:43;;;;;;;;;;;19.40;42.90;;;;;;5070398;28;19965;-59
2023/04/16 07:52:10;;;;;;;;;;;19.40;42.90;;;;;;5077080;28;20388;-58
2023/04/16 07:54:37;;;;;;;;;;;19.40;42.90;;;;;;5079373;28;19999;-58
2023/04/16 07:57:05;;;;;;;;;;;19.40;42.90;;;;;;5057243;28;19963;-59
2023/04/16 07:59:32;;;;;;;;;;;19.40;42.90;;;;;;5062330;28;19932;-58
2023/04/16 08:01:59;;;;;;;;;;;19.40;42.90;;;;;;5082151;28;19967;-59
2023/04/16 08:04:26;;;;;;;;;;;19.40;42.90;;;;;;5067897;28;19963;-59
2023/04/16 08:06:53;;;;;;;;;;;19.40;42.90;;;;;;5075845;28;19920;-58
2023/04/16 08:09:20;;;;;;;;;;;19.40;42.90;;;;;;5089106;28;19965;-58
2023/04/16 08:11:48;;;;;;;;;;;19.40;42.90;;;;;;5072352;28;19932;-59
2023/04/16 08:14:16;;;;;;;;;;;19.40;42.90;;;;;;5085670;28;19971;-58
2023/04/16 08:16:42;;;;;;;;;;;19.40;42.90;;;;;;5057841;28;19924;-59
2023/04/16 08:19:09;;;;;;;;;;;19.40;42.90;;;;;;5087321;28;20015;-58
2023/04/16 08:21:36;;;;;;;;;;;19.40;42.90;;;;;;5055604;28;20379;-58
2023/04/16 08:24:02;;;;;;;;;;;19.40;42.90;;;;;;5072294;28;19974;-58
2023/04/16 08:26:29;;;;;;;;;;;19.40;42.90;;;;;;5085549;28;20313;-59
2023/04/16 08:28:56;;;;;;;;;;;19.40;42.90;;;;;;5083863;28;19965;-59
2023/04/16 08:31:24;;;;;;;;;;;19.40;42.90;;;;;;5069333;28;19950;-59
2023/04/16 08:33:51;;;;;;;;;;;19.40;42.90;;;;;;5088184;28;19924;-58
2023/04/16 08:36:17;;;;;;;;;;;19.40;42.90;;;;;;5080559;28;19946;-59
2023/04/16 08:38:44;;;;;;;;;;;19.40;42.90;;;;;;5075138;28;19973;-59
2023/04/16 08:41:11;;;;;;;;;;;19.40;42.90;;;;;;5087077;28;20026;-59
2023/04/16 08:43:39;;;;;;;;;;;19.40;42.90;;;;;;5070976;28;20358;-58
2023/04/16 08:46:05;;;;;;;;;;;19.40;42.90;;;;;;5088533;28;20001;-59
2023/04/16 08:48:34;;;;;;;;;;;19.40;43.50;;;;;;5082555;28;19928;-59
2023/04/16 08:51:01;;;;;;;;;;;19.40;42.90;;;;;;5088818;28;19959;-59
2023/04/16 08:53:29;;;;;;;;;;;19.40;42.90;;;;;;5082864;28;20390;-59
2023/04/16 08:55:56;;;;;;;;;;;19.40;42.90;;;;;;5086988;28;20084;-59
2023/04/16 08:58:23;;;;;;;;;;;19.40;42.90;;;;;;5069470;28;19927;-59
2023/04/16 09:00:49;;;;;;;;;;;19.40;42.90;;;;;;5075891;28;19931;-58
2023/04/16 09:03:18;;;;;;;;;;;19.40;42.90;;;;;;5065772;28;19932;-58
2023/04/16 09:05:46;;;;;;;;;;;19.40;42.90;;;;;;5078175;28;19928;-58
2023/04/16 09:08:13;;;;;;;;;;;19.40;42.90;;;;;;5079524;28;20429;-59
2023/04/16 09:10:40;;;;;;;;;;;19.40;42.90;;;;;;5070343;28;19928;-59
2023/04/16 09:13:08;;;;;;;;;;;19.40;42.90;;;;;;5079530;28;20340;-59
2023/04/16 09:15:35;;;;;;;;;;;19.40;42.90;;;;;;5078126;28;20438;-59
2023/04/16 09:18:01;;;;;;;;;;;19.40;42.90;;;;;;5064841;28;19928;-59
2023/04/16 09:20:28;;;;;;;;;;;19.40;42.90;;;;;;5066557;28;19920;-58
2023/04/16 09:22:56;;;;;;;;;;;19.50;42.90;;;;;;5064658;28;19969;-59
2023/04/16 09:25:23;;;;;;;;;;;19.40;42.90;;;;;;5065412;28;19960;-58
2023/04/16 09:27:50;;;;;;;;;;;19.40;42.90;;;;;;5090800;28;19932;-59
2023/04/16 09:30:21;;;;;;;;;;;19.40;42.90;;;;;;5068858;28;19932;-58
2023/04/16 09:32:48;;;;;;;;;;;19.40;42.90;;;;;;5076317;28;19997;-58
2023/04/16 09:35:15;;;;;;;;;;;19.40;42.90;;;;;;5069797;28;19927;-58
2023/04/16 09:37:42;;;;;;;;;;;19.40;42.90;;;;;;5065741;28;19924;-59
2023/04/16 09:40:10;;;;;;;;;;;19.40;42.90;;;;;;5071552;28;19920;-58
2023/04/16 09:42:37;;;;;;;;;;;19.50;43.00;;;;;;5088425;28;19949;-58
2023/04/16 09:45:04;;;;;;;;;;;19.40;42.90;;;;;;5088077;28;19967;-58
2023/04/16 09:47:49;;;;;;;;;;;19.40;42.90;;;;;;5064232;28;19924;-59
2023/04/16 09:50:16;;;;;;;;;;;19.40;42.90;;;;;;5068336;28;20324;-59
2023/04/16 09:52:43;;;;;;;;;;;19.40;42.90;;;;;;5070075;28;19932;-58
2023/04/16 09:55:11;;;;;;;;;;;19.40;42.90;;;;;;5089935;28;19920;-58
2023/04/16 09:57:38;;;;;;;;;;;19.50;43.00;;;;;;5067297;28;20035;-59
2023/04/16 10:00:06;;;;;;;;;;;19.40;42.90;;;;;;5087181;28;19927;-59
2023/04/16 10:02:33;;;;;;;;;;;19.50;43.00;;;;;;5072344;28;19924;-59
2023/04/16 10:05:00;;;;;;;;;;;19.40;42.90;;;;;;5065991;28;19920;-59
2023/04/16 10:07:28;;;;;;;;;;;19.50;43.00;;;;;;5084292;28;19973;-59
2023/04/16 10:09:54;;;;;;;;;;;19.50;43.00;;;;;;5070004;28;19924;-59
2023/04/16 10:12:23;;;;;;;;;;;19.50;43.10;;;;;;5086351;28;19927;-59
2023/04/16 10:14:49;;;;;;;;;;;19.50;43.10;;;;;;5083482;28;20032;-58
2023/04/16 10:17:16;;;;;;;;;;;19.50;43.10;;;;;;5086644;28;20061;-58
2023/04/16 10:19:43;;;;;;;;;;;19.50;43.10;;;;;;5081456;28;19923;-59
2023/04/16 10:22:09;;;;;;;;;;;19.50;43.10;;;;;;5087904;28;19920;-59
2023/04/16 10:24:36;;;;;;;;;;;19.50;43.10;;;;;;5078983;28;20005;-59
2023/04/16 10:27:03;;;;;;;;;;;19.50;43.10;;;;;;5088997;28;19920;-59
2023/04/16 10:29:31;;;;;;;;;;;19.50;43.10;;;;;;5086442;28;19932;-59
2023/04/16 10:31:58;;;;;;;;;;;19.50;43.10;;;;;;5088067;28;19924;-58
2023/04/16 10:34:25;;;;;;;;;;;19.50;43.10;;;;;;5087197;28;20381;-59
2023/04/16 10:36:52;;;;;;;;;;;19.50;43.10;;;;;;5069897;28;19949;-59
2023/04/16 10:39:19;;;;;;;;;;;19.50;43.10;;;;;;5085241;28;20313;-58
2023/04/16 10:41:46;;;;;;;;;;;19.50;43.10;;;;;;5079173;28;19924;-59
2023/04/16 10:44:13;;;;;;;;;;;19.50;43.00;;;;;;5080630;28;19920;-59
2023/04/16 10:46:41;;;;;;;;;;;19.50;43.00;;;;;;5079329;28;19983;-59
2023/04/16 10:49:14;;;;;;;;;;;19.50;43.00;;;;;;5083245;28;19924;-59
2023/04/16 10:51:41;;;;;;;;;;;19.50;43.00;;;;;;5064304;28;19920;-57
2023/04/16 10:54:19;;;;;;;;;;;19.50;43.00;;;;;;5076459;28;19920;-58
2023/04/16 10:56:46;;;;;;;;;;;19.50;43.00;;;;;;5074697;28;19920;-58
2023/04/16 10:59:13;;;;;;;;;;;19.40;43.10;;;;;;5075838;28;19966;-58
2023/04/16 11:01:42;;;;;;;;;;;19.40;42.90;;;;;;5066103;28;20332;-58
2023/04/16 11:04:33;;;;;;;;;;;19.40;42.90;;;;;;5078702;28;19956;-58
2023/04/16 11:07:00;;;;;;;;;;;19.40;42.90;;;;;;5077955;28;19920;-58
2023/04/16 11:10:01;;;;;;;;;;;19.40;42.90;;;;;;5067706;28;20016;-58
2023/04/16 11:12:32;;;;;;;;;;;19.40;42.90;;;;;;5001799;28;19934;-58
2023/04/16 11:14:59;;;;;;;;;;;19.40;42.80;;;;;;5005387;28;19925;-58
2023/04/16 11:17:29;;;;;;;;;;;19.40;42.80;;;;;;5026292;28;19982;-58
2023/04/16 11:19:58;;;;;;;;;;;19.40;42.80;;;;;;5067894;28;20304;-58
2023/04/16 11:22:25;;;;;;;;;;;19.40;42.80;;;;;;5068407;28;20428;-58
2023/04/16 11:24:53;;;;;;;;;;;19.40;42.80;;;;;;5067759;28;19948;-58
2023/04/16 11:27:20;;;;;;;;;;;19.40;42.80;;;;;;5082514;28;19989;-58
2023/04/16 11:29:47;;;;;;;;;;;19.40;42.70;;;;;;5056709;28;20331;-59
2023/04/16 11:32:20;;;;;;;;;;;19.40;42.70;;;;;;5064862;28;19927;-59
2023/04/16 11:34:48;;;;;;;;;;;19.40;42.70;;;;;;5088539;28;20390;-59
2023/04/16 11:37:15;;;;;;;;;;;19.40;42.70;;;;;;5084906;28;19928;-59
2023/04/16 11:39:49;;;;;;;;;;;19.40;42.70;;;;;;5080898;28;19920;-59
2023/04/16 11:42:19;;;;;;;;;;;19.40;42.70;;;;;;5088098;28;19931;-59
2023/04/16 11:44:45;;;;;;;;;;;19.40;42.70;;;;;;5072366;28;19931;-60
2023/04/16 11:47:13;;;;;;;;;;;19.40;42.70;;;;;;5064064;28;19943;-60
2023/04/16 11:49:40;;;;;;;;;;;19.40;42.70;;;;;;5082280;28;19920;-59
2023/04/16 11:52:08;;;;;;;;;;;19.40;42.80;;;;;;5063943;28;20054;-59
2023/04/16 11:54:37;;;;;;;;;;;19.40;42.80;;;;;;5071364;28;20403;-59
2023/04/16 11:57:04;;;;;;;;;;;19.40;42.70;;;;;;5070933;28;20385;-59
2023/04/16 11:59:32;;;;;;;;;;;19.40;42.80;;;;;;5067389;28;20007;-59
2023/04/16 12:01:58;;;;;;;;;;;19.40;42.80;;;;;;5088425;28;19959;-59
2023/04/16 12:04:26;;;;;;;;;;;19.40;42.70;;;;;;5088548;28;19920;-59
2023/04/16 12:07:06;;;;;;;;;;;19.40;42.70;;;;;;5083896;28;19931;-59
2023/04/16 12:09:35;;;;;;;;;;;19.40;42.60;;;;;;5081487;28;20019;-59
2023/04/16 12:12:02;;;;;;;;;;;19.50;42.70;;;;;;5085588;28;19973;-59
2023/04/16 12:14:28;;;;;;;;;;;19.40;42.70;;;;;;5087938;28;20273;-59
2023/04/16 12:16:55;;;;;;;;;;;19.50;42.70;;;;;;5066229;28;20138;-59
2023/04/16 12:19:22;;;;;;;;;;;19.50;42.70;;;;;;5065500;28;19932;-59
2023/04/16 12:21:49;;;;;;;;;;;19.40;42.70;;;;;;5087652;28;20095;-59
2023/04/16 12:24:16;;;;;;;;;;;19.50;42.70;;;;;;5067295;28;19962;-59
2023/04/16 12:26:45;;;;;;;;;;;19.40;43.20;;;;;;5063213;28;19924;-59
2023/04/16 12:29:18;;;;;;;;;;;19.40;42.60;;;;;;5063047;28;19921;-59
2023/04/16 12:31:45;;;;;;;;;;;19.40;42.70;;;;;;5086876;28;19920;-59
2023/04/16 12:34:13;;;;;;;;;;;19.40;42.70;;;;;;5087241;28;20049;-59
2023/04/16 12:36:40;;;;;;;;;;;19.40;42.70;;;;;;5080012;28;20428;-59
2023/04/16 12:39:09;;;;;;;;;;;19.40;42.70;;;;;;5082597;28;19928;-59
2023/04/16 12:41:36;;;;;;;;;;;19.40;42.60;;;;;;5069392;28;19932;-59
2023/04/16 12:44:07;;;;;;;;;;;19.40;42.70;;;;;;5089102;28;19934;-59
2023/04/16 12:46:35;;;;;;;;;;;19.40;42.60;;;;;;5083813;28;19939;-59
2023/04/16 12:49:01;;;;;;;;;;;19.40;42.60;;;;;;5079390;28;19920;-59
2023/04/16 12:51:28;;;;;;;;;;;19.40;42.60;;;;;;5087357;28;20010;-58
2023/04/16 12:53:55;;;;;;;;;;;19.40;42.60;;;;;;5087936;28;19943;-59
2023/04/16 12:56:21;;;;;;;;;;;19.50;42.70;;;;;;5065530;28;19928;-59
2023/04/16 12:58:50;;;;;;;;;;;19.50;42.70;;;;;;5078430;28;20019;-59
2023/04/16 13:01:19;;;;;;;;;;;19.50;42.70;;;;;;5066501;28;19924;-59
2023/04/16 13:03:45;;;;;;;;;;;19.50;42.70;;;;;;5083057;28;19924;-59
2023/04/16 13:06:12;;;;;;;;;;;19.50;42.70;;;;;;5062416;28;19924;-59
2023/04/16 13:08:39;;;;;;;;;;;19.50;42.70;;;;;;5068495;28;20331;-59
2023/04/16 13:11:06;;;;;;;;;;;19.50;42.70;;;;;;5085085;28;19931;-59
2023/04/16 13:13:33;;;;;;;;;;;19.50;42.70;;;;;;5059661;28;19993;-59
2023/04/16 13:16:00;;;;;;;;;;;19.50;42.70;;;;;;5087660;28;19920;-58
2023/04/16 13:18:28;;;;;;;;;;;19.50;42.70;;;;;;5080260;28;19924;-59
2023/04/16 13:20:54;;;;;;;;;;;19.50;42.70;;;;;;5090654;28;19920;-59
2023/04/16 13:23:21;;;;;;;;;;;19.50;42.70;;;;;;5071941;28;19920;-60
2023/04/16 13:25:48;;;;;;;;;;;19.50;42.70;;;;;;5088333;28;20308;-56
2023/04/16 13:28:17;;;;;;;;;;;19.50;42.80;;;;;;5092218;28;19935;-59
2023/04/16 13:30:45;;;;;;;;;;;19.50;42.90;;;;;;5064398;28;20277;-58
2023/04/16 13:33:12;;;;;;;;;;;19.50;43.00;;;;;;5071593;28;19920;-59
2023/04/16 13:35:41;;;;;;;;;;;19.50;43.10;;;;;;5054817;28;19928;-59
2023/04/16 13:38:08;;;;;;;;;;;19.50;43.20;;;;;;5064273;28;19935;-59
2023/04/16 13:40:34;;;;;;;;;;;19.60;43.40;;;;;;5071401;28;19928;-59
2023/04/16 13:43:01;;;;;;;;;;;19.60;43.60;;;;;;5105917;28;19931;-59
2023/04/16 13:45:32;;;;;;;;;;;19.60;43.80;;;;;;5076899;28;19924;-60
2023/04/16 13:47:59;;;;;;;;;;;19.60;43.90;;;;;;5077684;28;20296;-58
2023/04/16 13:50:26;;;;;;;;;;;19.70;44.10;;;;;;5061699;28;20015;-60
2023/04/16 13:52:55;;;;;;;;;;;19.70;44.20;;;;;;5069314;28;19925;-57
2023/04/16 13:55:22;;;;;;;;;;;19.70;44.50;;;;;;5075201;28;19924;-55
2023/04/16 13:57:49;;;;;;;;;;;19.70;44.60;;;;;;5071097;28;19927;-58
2023/04/16 14:00:16;;;;;;;;;;;19.70;44.60;;;;;;5073018;28;20243;-58
2023/04/16 14:02:44;;;;;;;;;;;19.70;44.50;;;;;;5061877;28;20011;-59
2023/04/16 14:05:11;;;;;;;;;;;19.70;44.40;;;;;;5074833;28;19926;-58
2023/04/16 14:07:37;;;;;;;;;;;19.70;44.40;;;;;;5062448;28;19920;-58
2023/04/16 14:10:06;;;;;;;;;;;19.70;44.30;;;;;;5061818;28;20374;-57
2023/04/16 14:12:33;;;;;;;;;;;19.70;44.20;;;;;;5085412;28;19920;-57
2023/04/16 14:15:03;;;;;;;;;;;19.70;44.20;;;;;;5064040;28;19920;-58
2023/04/16 14:17:29;;;;;;;;;;;19.70;44.20;;;;;;5057321;28;20007;-58